Time,TemperatureF,DewpointF,PressureIn,WindDirection,WindDirectionDegrees,WindSpeedMPH,WindSpeedGustMPH,Humidity,HourlyPrecipIn,Conditions,Clouds,dailyrainin,SoftwareType,DateUTC
2013-01-05 00:00:00,22.8,7.8,28.97,North,-999,-999.0,-999.0,52,-99.99,,,-99.99,VWS V14.01,2013-01-05 05:00:00,
2013-01-05 00:01:00,22.8,7.8,28.97,North,-999,-999.0,-999.0,52,-99.99,,,-99.99,VWS V14.01,2013-01-05 05:01:00,
2013-01-05 00:02:00,22.8,7.8,28.97,North,-999,-999.0,-999.0,52,-99.99,,,-99.99,VWS V14.01,2013-01-05 05:02:00,
2013-01-05 00:04:00,22.8,7.8,28.97,North,-999,-999.0,-999.0,52,-99.99,,,-99.99,VWS V14.01,2013-01-05 05:04:00,
2013-01-05 00:09:00,22.6,7.7,28.97,North,-999,-999.0,-999.0,52,-99.99,,,-99.99,VWS V14.01,2013-01-05 05:09:00,
2013-01-05 00:14:00,22.5,7.5,28.97,North,-999,-999.0,-999.0,52,-99.99,,,-99.99,VWS V14.01,2013-01-05 05:14:00,
2013-01-05 00:19:00,22.5,7.9,29.00,North,-999,-999.0,-999.0,53,-99.99,,,-99.99,VWS V14.01,2013-01-05 05:19:00,
2013-01-05 00:25:00,22.3,7.8,29.00,North,-999,-999.0,-999.0,53,-99.99,,,-99.99,VWS V14.01,2013-01-05 05:25:00,
2013-01-05 00:31:00,22.3,7.8,29.00,North,-999,-999.0,-999.0,53,-99.99,,,-99.99,VWS V14.01,2013-01-05 05:31:00,
2013-01-05 00:37:00,22.3,8.2,29.00,North,-999,-999.0,-999.0,54,-99.99,,,-99.99,VWS V14.01,2013-01-05 05:37:00,
2013-01-05 00:42:00,22.1,8.0,29.00,North,-999,-999.0,-999.0,54,-99.99,,,-99.99,VWS V14.01,2013-01-05 05:42:00,
2013-01-05 00:48:00,22.3,8.2,29.00,North,-999,-999.0,-999.0,54,-99.99,,,-99.99,VWS V14.01,2013-01-05 05:48:00,
2013-01-05 00:54:00,22.3,8.6,29.00,North,-999,-999.0,-999.0,55,-99.99,,,-99.99,VWS V14.01,2013-01-05 05:54:00,
2013-01-05 00:59:00,22.3,8.6,29.00,North,-999,-999.0,-999.0,55,-99.99,,,-99.99,VWS V14.01,2013-01-05 05:59:00,
2013-01-05 01:05:00,22.3,8.6,29.00,North,-999,-999.0,-999.0,55,-99.99,,,-99.99,VWS V14.01,2013-01-05 06:05:00,
2013-01-05 01:10:00,22.3,9.0,29.00,North,-999,-999.0,-999.0,56,-99.99,,,-99.99,VWS V14.01,2013-01-05 06:10:00,
2013-01-05 01:15:00,22.5,9.5,29.00,North,-999,-999.0,-999.0,57,-99.99,,,-99.99,VWS V14.01,2013-01-05 06:15:00,
2013-01-05 01:20:00,22.5,9.5,29.00,North,-999,-999.0,-999.0,57,-99.99,,,-99.99,VWS V14.01,2013-01-05 06:20:00,
2013-01-05 01:25:00,22.3,9.4,29.00,North,-999,-999.0,-999.0,57,-99.99,,,-99.99,VWS V14.01,2013-01-05 06:25:00,
2013-01-05 01:31:00,22.3,9.4,29.00,North,-999,-999.0,-999.0,57,-99.99,,,-99.99,VWS V14.01,2013-01-05 06:31:00,
2013-01-05 01:36:00,22.1,9.2,29.00,North,-999,-999.0,-999.0,57,-99.99,,,-99.99,VWS V14.01,2013-01-05 06:36:00,
2013-01-05 01:41:00,22.1,9.6,29.00,North,-999,-999.0,-999.0,58,-99.99,,,-99.99,VWS V14.01,2013-01-05 06:41:00,
2013-01-05 01:47:00,22.1,9.6,29.00,North,-999,-999.0,-999.0,58,-99.99,,,-99.99,VWS V14.01,2013-01-05 06:47:00,
2013-01-05 01:52:00,22.1,10.0,29.00,North,-999,-999.0,-999.0,59,-99.99,,,-99.99,VWS V14.01,2013-01-05 06:52:00,
2013-01-05 01:58:00,21.9,9.8,29.00,North,-999,-999.0,-999.0,59,-99.99,,,-99.99,VWS V14.01,2013-01-05 06:58:00,
2013-01-05 02:04:00,21.9,9.8,29.00,North,-999,-999.0,-999.0,59,-99.99,,,-99.99,VWS V14.01,2013-01-05 07:04:00,
2013-01-05 02:10:00,21.9,10.2,29.00,North,-999,-999.0,-999.0,60,-99.99,,,-99.99,VWS V14.01,2013-01-05 07:10:00,
2013-01-05 02:15:00,21.9,10.2,29.00,North,-999,-999.0,-999.0,60,-99.99,,,-99.99,VWS V14.01,2013-01-05 07:15:00,
2013-01-05 02:20:00,21.9,10.9,29.03,North,-999,-999.0,-999.0,62,-99.99,,,-99.99,VWS V14.01,2013-01-05 07:20:00,
2013-01-05 02:26:00,21.9,10.9,29.03,North,-999,-999.0,-999.0,62,-99.99,,,-99.99,VWS V14.01,2013-01-05 07:26:00,
2013-01-05 02:31:00,21.7,10.7,29.03,North,-999,-999.0,-999.0,62,-99.99,,,-99.99,VWS V14.01,2013-01-05 07:31:00,
2013-01-05 02:37:00,21.7,10.7,29.03,North,-999,-999.0,-999.0,62,-99.99,,,-99.99,VWS V14.01,2013-01-05 07:37:00,
2013-01-05 02:42:00,21.6,10.6,29.03,North,-999,-999.0,-999.0,62,-99.99,,,-99.99,VWS V14.01,2013-01-05 07:42:00,
2013-01-05 02:47:00,21.4,10.4,29.03,North,-999,-999.0,-999.0,62,-99.99,,,-99.99,VWS V14.01,2013-01-05 07:47:00,
2013-01-05 02:52:00,21.2,10.2,29.03,North,-999,-999.0,-999.0,62,-99.99,,,-99.99,VWS V14.01,2013-01-05 07:52:00,
2013-01-05 02:57:00,21.2,10.2,29.03,North,-999,-999.0,-999.0,62,-99.99,,,-99.99,VWS V14.01,2013-01-05 07:57:00,
2013-01-05 03:02:00,20.8,9.9,29.03,North,-999,-999.0,-999.0,62,-99.99,,,-99.99,VWS V14.01,2013-01-05 08:02:00,
2013-01-05 03:07:00,20.5,9.6,29.03,North,-999,-999.0,-999.0,62,-99.99,,,-99.99,VWS V14.01,2013-01-05 08:07:00,
2013-01-05 03:13:00,20.3,9.4,29.03,North,-999,-999.0,-999.0,62,-99.99,,,-99.99,VWS V14.01,2013-01-05 08:13:00,
2013-01-05 03:18:00,20.5,9.6,29.03,North,-999,-999.0,-999.0,62,-99.99,,,-99.99,VWS V14.01,2013-01-05 08:18:00,
2013-01-05 03:23:00,20.8,10.2,29.03,North,-999,-999.0,-999.0,63,-99.99,,,-99.99,VWS V14.01,2013-01-05 08:23:00,
2013-01-05 03:29:00,21.0,10.8,29.03,North,-999,-999.0,-999.0,64,-99.99,,,-99.99,VWS V14.01,2013-01-05 08:29:00,
2013-01-05 03:34:00,21.2,10.9,29.06,North,-999,-999.0,-999.0,64,-99.99,,,-99.99,VWS V14.01,2013-01-05 08:34:00,
2013-01-05 03:40:00,21.4,11.5,29.06,North,-999,-999.0,-999.0,65,-99.99,,,-99.99,VWS V14.01,2013-01-05 08:40:00,
2013-01-05 03:46:00,21.4,11.5,29.06,North,-999,-999.0,-999.0,65,-99.99,,,-99.99,VWS V14.01,2013-01-05 08:46:00,
2013-01-05 03:51:00,21.4,11.8,29.06,North,-999,-999.0,-999.0,66,-99.99,,,-99.99,VWS V14.01,2013-01-05 08:51:00,
2013-01-05 03:56:00,21.6,12.3,29.06,North,-999,-999.0,-999.0,67,-99.99,,,-99.99,VWS V14.01,2013-01-05 08:56:00,
2013-01-05 04:01:00,21.7,12.8,29.06,North,-999,-999.0,-999.0,68,-99.99,,,-99.99,VWS V14.01,2013-01-05 09:01:00,
2013-01-05 04:06:00,21.6,12.6,29.06,North,-999,-999.0,-999.0,68,-99.99,,,-99.99,VWS V14.01,2013-01-05 09:06:00,
2013-01-05 04:11:00,21.4,12.5,29.06,North,-999,-999.0,-999.0,68,-99.99,,,-99.99,VWS V14.01,2013-01-05 09:11:00,
2013-01-05 04:17:00,21.4,12.5,29.03,North,-999,-999.0,-999.0,68,-99.99,,,-99.99,VWS V14.01,2013-01-05 09:17:00,
2013-01-05 04:23:00,20.8,12.0,29.03,North,-999,-999.0,-999.0,68,-99.99,,,-99.99,VWS V14.01,2013-01-05 09:23:00,
2013-01-05 04:28:00,20.7,11.8,29.03,North,-999,-999.0,-999.0,68,-99.99,,,-99.99,VWS V14.01,2013-01-05 09:28:00,
2013-01-05 04:34:00,20.5,11.6,29.03,North,-999,-999.0,-999.0,68,-99.99,,,-99.99,VWS V14.01,2013-01-05 09:34:00,
2013-01-05 04:39:00,20.3,11.4,29.03,North,-999,-999.0,-999.0,68,-99.99,,,-99.99,VWS V14.01,2013-01-05 09:39:00,
2013-01-05 04:44:00,20.7,12.1,29.03,North,-999,-999.0,-999.0,69,-99.99,,,-99.99,VWS V14.01,2013-01-05 09:44:00,
2013-01-05 04:50:00,20.7,12.1,29.03,North,-999,-999.0,-999.0,69,-99.99,,,-99.99,VWS V14.01,2013-01-05 09:50:00,
2013-01-05 04:55:00,20.5,11.9,29.03,North,-999,-999.0,-999.0,69,-99.99,,,-99.99,VWS V14.01,2013-01-05 09:55:00,
2013-01-05 05:01:00,20.3,11.8,29.03,North,-999,-999.0,-999.0,69,-99.99,,,-99.99,VWS V14.01,2013-01-05 10:01:00,
2013-01-05 05:06:00,20.3,11.8,29.03,North,-999,-999.0,-999.0,69,-99.99,,,-99.99,VWS V14.01,2013-01-05 10:06:00,
2013-01-05 05:11:00,20.3,11.8,29.03,North,-999,-999.0,-999.0,69,-99.99,,,-99.99,VWS V14.01,2013-01-05 10:11:00,
2013-01-05 05:17:00,20.7,12.4,29.06,North,-999,-999.0,-999.0,70,-99.99,,,-99.99,VWS V14.01,2013-01-05 10:17:00,
2013-01-05 05:22:00,20.5,12.6,29.06,North,-999,-999.0,-999.0,71,-99.99,,,-99.99,VWS V14.01,2013-01-05 10:22:00,
2013-01-05 05:28:00,19.9,11.8,29.06,North,-999,-999.0,-999.0,70,-99.99,,,-99.99,VWS V14.01,2013-01-05 10:28:00,
2013-01-05 05:34:00,19.9,11.8,29.03,North,-999,-999.0,-999.0,70,-99.99,,,-99.99,VWS V14.01,2013-01-05 10:34:00,
2013-01-05 05:39:00,19.9,12.1,29.03,North,-999,-999.0,-999.0,71,-99.99,,,-99.99,VWS V14.01,2013-01-05 10:39:00,
2013-01-05 05:44:00,19.8,11.9,29.03,North,-999,-999.0,-999.0,71,-99.99,,,-99.99,VWS V14.01,2013-01-05 10:44:00,
2013-01-05 05:49:00,19.9,12.1,29.06,North,-999,-999.0,-999.0,71,-99.99,,,-99.99,VWS V14.01,2013-01-05 10:49:00,
2013-01-05 05:54:00,20.1,12.2,29.06,North,-999,-999.0,-999.0,71,-99.99,,,-99.99,VWS V14.01,2013-01-05 10:54:00,
2013-01-05 05:59:00,19.9,12.4,29.06,North,-999,-999.0,-999.0,72,-99.99,,,-99.99,VWS V14.01,2013-01-05 10:59:00,
2013-01-05 06:05:00,19.2,11.7,29.03,North,-999,-999.0,-999.0,72,-99.99,,,-99.99,VWS V14.01,2013-01-05 11:05:00,
2013-01-05 06:10:00,18.9,11.0,29.03,North,-999,-999.0,-999.0,71,-99.99,,,-99.99,VWS V14.01,2013-01-05 11:10:00,
2013-01-05 06:15:00,18.7,10.9,29.03,North,-999,-999.0,-999.0,71,-99.99,,,-99.99,VWS V14.01,2013-01-05 11:15:00,
2013-01-05 06:21:00,18.7,10.9,29.06,North,-999,-999.0,-999.0,71,-99.99,,,-99.99,VWS V14.01,2013-01-05 11:21:00,
2013-01-05 06:26:00,18.5,11.0,29.06,North,-999,-999.0,-999.0,72,-99.99,,,-99.99,VWS V14.01,2013-01-05 11:26:00,
2013-01-05 06:31:00,18.5,11.0,29.03,North,-999,-999.0,-999.0,72,-99.99,,,-99.99,VWS V14.01,2013-01-05 11:31:00,
2013-01-05 06:36:00,18.3,10.8,29.03,North,-999,-999.0,-999.0,72,-99.99,,,-99.99,VWS V14.01,2013-01-05 11:36:00,
2013-01-05 06:42:00,18.1,10.3,29.03,North,-999,-999.0,-999.0,71,-99.99,,,-99.99,VWS V14.01,2013-01-05 11:42:00,
2013-01-05 06:48:00,18.3,10.8,29.06,North,-999,-999.0,-999.0,72,-99.99,,,-99.99,VWS V14.01,2013-01-05 11:48:00,
2013-01-05 06:53:00,17.6,10.1,29.06,North,-999,-999.0,-999.0,72,-99.99,,,-99.99,VWS V14.01,2013-01-05 11:53:00,
2013-01-05 06:59:00,16.7,8.9,29.06,North,-999,-999.0,-999.0,71,-99.99,,,-99.99,VWS V14.01,2013-01-05 11:59:00,
2013-01-05 07:04:00,16.2,8.4,29.03,North,-999,-999.0,-999.0,71,-99.99,,,-99.99,VWS V14.01,2013-01-05 12:04:00,
2013-01-05 07:09:00,16.0,8.2,29.03,North,-999,-999.0,-999.0,71,-99.99,,,-99.99,VWS V14.01,2013-01-05 12:09:00,
2013-01-05 07:15:00,15.4,7.7,29.03,North,-999,-999.0,-999.0,71,-99.99,,,-99.99,VWS V14.01,2013-01-05 12:15:00,
2013-01-05 07:21:00,15.6,7.9,29.06,North,-999,-999.0,-999.0,71,-99.99,,,-99.99,VWS V14.01,2013-01-05 12:21:00,
2013-01-05 07:27:00,15.1,7.4,29.06,North,-999,-999.0,-999.0,71,-99.99,,,-99.99,VWS V14.01,2013-01-05 12:27:00,
2013-01-05 07:33:00,15.4,7.7,29.06,North,-999,-999.0,-999.0,71,-99.99,,,-99.99,VWS V14.01,2013-01-05 12:33:00,
2013-01-05 07:38:00,16.5,9.1,29.06,North,-999,-999.0,-999.0,72,-99.99,,,-99.99,VWS V14.01,2013-01-05 12:38:00,
2013-01-05 07:43:00,17.1,9.9,29.06,North,-999,-999.0,-999.0,73,-99.99,,,-99.99,VWS V14.01,2013-01-05 12:43:00,
2013-01-05 07:48:00,17.8,10.6,29.06,North,-999,-999.0,-999.0,73,-99.99,,,-99.99,VWS V14.01,2013-01-05 12:48:00,
2013-01-05 07:54:00,18.5,11.6,29.06,North,-999,-999.0,-999.0,74,-99.99,,,-99.99,VWS V14.01,2013-01-05 12:54:00,
2013-01-05 07:59:00,19.0,12.1,29.06,North,-999,-999.0,-999.0,74,-99.99,,,-99.99,VWS V14.01,2013-01-05 12:59:00,
2013-01-05 08:04:00,19.2,12.6,29.06,North,-999,-999.0,-999.0,75,-99.99,,,-99.99,VWS V14.01,2013-01-05 13:04:00,
2013-01-05 08:09:00,19.6,13.0,29.06,North,-999,-999.0,-999.0,75,-99.99,,,-99.99,VWS V14.01,2013-01-05 13:09:00,
2013-01-05 08:15:00,19.6,13.0,29.06,North,-999,-999.0,-999.0,75,-99.99,,,-99.99,VWS V14.01,2013-01-05 13:15:00,
2013-01-05 08:20:00,19.8,13.1,29.06,North,-999,-999.0,-999.0,75,-99.99,,,-99.99,VWS V14.01,2013-01-05 13:20:00,
2013-01-05 08:25:00,19.9,13.6,29.06,North,-999,-999.0,-999.0,76,-99.99,,,-99.99,VWS V14.01,2013-01-05 13:25:00,
2013-01-05 08:30:00,19.9,13.6,29.06,North,-999,-999.0,-999.0,76,-99.99,,,-99.99,VWS V14.01,2013-01-05 13:30:00,
2013-01-05 08:36:00,19.9,13.6,29.06,North,-999,-999.0,-999.0,76,-99.99,,,-99.99,VWS V14.01,2013-01-05 13:36:00,
2013-01-05 08:41:00,20.1,13.8,29.06,North,-999,-999.0,-999.0,76,-99.99,,,-99.99,VWS V14.01,2013-01-05 13:41:00,
2013-01-05 08:46:00,20.1,13.8,29.06,North,-999,-999.0,-999.0,76,-99.99,,,-99.99,VWS V14.01,2013-01-05 13:46:00,
2013-01-05 08:51:00,19.9,13.6,29.06,North,-999,-999.0,-999.0,76,-99.99,,,-99.99,VWS V14.01,2013-01-05 13:51:00,
2013-01-05 08:56:00,19.9,13.6,29.06,North,-999,-999.0,-999.0,76,-99.99,,,-99.99,VWS V14.01,2013-01-05 13:56:00,
2013-01-05 09:02:00,19.9,13.6,29.06,North,-999,-999.0,-999.0,76,-99.99,,,-99.99,VWS V14.01,2013-01-05 14:02:00,
2013-01-05 09:08:00,20.1,13.8,29.06,North,-999,-999.0,-999.0,76,-99.99,,,-99.99,VWS V14.01,2013-01-05 14:08:00,
2013-01-05 09:13:00,20.3,14.0,29.06,North,-999,-999.0,-999.0,76,-99.99,,,-99.99,VWS V14.01,2013-01-05 14:13:00,
2013-01-05 09:19:00,20.3,14.0,29.06,North,-999,-999.0,-999.0,76,-99.99,,,-99.99,VWS V14.01,2013-01-05 14:19:00,
2013-01-05 09:24:00,20.7,14.3,29.06,North,-999,-999.0,-999.0,76,-99.99,,,-99.99,VWS V14.01,2013-01-05 14:24:00,
2013-01-05 09:29:00,21.2,15.1,29.06,North,-999,-999.0,-999.0,77,-99.99,,,-99.99,VWS V14.01,2013-01-05 14:29:00,
2013-01-05 09:35:00,21.7,15.6,29.06,North,-999,-999.0,-999.0,77,-99.99,,,-99.99,VWS V14.01,2013-01-05 14:35:00,
2013-01-05 09:41:00,21.9,15.8,29.06,North,-999,-999.0,-999.0,77,-99.99,,,-99.99,VWS V14.01,2013-01-05 14:41:00,
2013-01-05 09:47:00,22.3,16.2,29.06,North,-999,-999.0,-999.0,77,-99.99,,,-99.99,VWS V14.01,2013-01-05 14:47:00,
2013-01-05 09:52:00,22.6,16.5,29.06,North,-999,-999.0,-999.0,77,-99.99,,,-99.99,VWS V14.01,2013-01-05 14:52:00,
2013-01-05 09:57:00,22.8,16.7,29.06,North,-999,-999.0,-999.0,77,-99.99,,,-99.99,VWS V14.01,2013-01-05 14:57:00,
2013-01-05 10:03:00,23.0,16.9,29.06,North,-999,-999.0,-999.0,77,-99.99,,,-99.99,VWS V14.01,2013-01-05 15:03:00,
2013-01-05 10:09:00,23.4,16.6,29.06,North,-999,-999.0,-999.0,75,-99.99,,,-99.99,VWS V14.01,2013-01-05 15:09:00,
2013-01-05 10:14:00,23.2,16.1,29.06,North,-999,-999.0,-999.0,74,-99.99,,,-99.99,VWS V14.01,2013-01-05 15:14:00,
2013-01-05 10:19:00,23.2,15.8,29.09,North,-999,-999.0,-999.0,73,-99.99,,,-99.99,VWS V14.01,2013-01-05 15:19:00,
2013-01-05 10:25:00,23.4,15.4,29.09,North,-999,-999.0,-999.0,71,-99.99,,,-99.99,VWS V14.01,2013-01-05 15:25:00,
2013-01-05 10:30:00,23.7,15.7,29.09,North,-999,-999.0,-999.0,71,-99.99,,,-99.99,VWS V14.01,2013-01-05 15:30:00,
2013-01-05 10:35:00,24.3,15.9,29.09,North,-999,-999.0,-999.0,70,-99.99,,,-99.99,VWS V14.01,2013-01-05 15:35:00,
2013-01-05 10:40:00,24.6,15.9,29.09,North,-999,-999.0,-999.0,69,-99.99,,,-99.99,VWS V14.01,2013-01-05 15:40:00,
2013-01-05 10:45:00,25.2,15.8,29.09,North,-999,-999.0,-999.0,67,-99.99,,,-99.99,VWS V14.01,2013-01-05 15:45:00,
2013-01-05 10:50:00,25.7,15.9,29.09,North,-999,-999.0,-999.0,66,-99.99,,,-99.99,VWS V14.01,2013-01-05 15:50:00,
2013-01-05 10:55:00,26.1,15.6,29.09,North,-999,-999.0,-999.0,64,-99.99,,,-99.99,VWS V14.01,2013-01-05 15:55:00,
2013-01-05 11:01:00,26.4,15.6,29.09,North,-999,-999.0,-999.0,63,-99.99,,,-99.99,VWS V14.01,2013-01-05 16:01:00,
2013-01-05 11:06:00,26.8,15.5,29.09,North,-999,-999.0,-999.0,62,-99.99,,,-99.99,VWS V14.01,2013-01-05 16:06:00,
2013-01-05 11:11:00,27.3,15.7,29.09,North,-999,-999.0,-999.0,61,-99.99,,,-99.99,VWS V14.01,2013-01-05 16:11:00,
2013-01-05 11:16:00,27.7,15.2,29.06,North,-999,-999.0,-999.0,59,-99.99,,,-99.99,VWS V14.01,2013-01-05 16:16:00,
2013-01-05 11:22:00,27.9,14.2,29.06,North,-999,-999.0,-999.0,56,-99.99,,,-99.99,VWS V14.01,2013-01-05 16:22:00,
2013-01-05 11:28:00,28.0,14.0,29.06,North,-999,-999.0,-999.0,55,-99.99,,,-99.99,VWS V14.01,2013-01-05 16:28:00,
2013-01-05 11:34:00,28.4,13.5,29.06,North,-999,-999.0,-999.0,53,-99.99,,,-99.99,VWS V14.01,2013-01-05 16:34:00,
2013-01-05 11:40:00,28.8,13.4,29.06,North,-999,-999.0,-999.0,52,-99.99,,,-99.99,VWS V14.01,2013-01-05 16:40:00,
2013-01-05 11:46:00,29.3,13.9,29.03,North,-999,-999.0,-999.0,52,-99.99,,,-99.99,VWS V14.01,2013-01-05 16:46:00,
2013-01-05 11:51:00,29.7,14.2,29.03,North,-999,-999.0,-999.0,52,-99.99,,,-99.99,VWS V14.01,2013-01-05 16:51:00,
2013-01-05 11:56:00,29.8,13.9,29.03,North,-999,-999.0,-999.0,51,-99.99,,,-99.99,VWS V14.01,2013-01-05 16:56:00,
2013-01-05 12:01:00,30.2,12.9,29.03,North,-999,-999.0,-999.0,48,-99.99,,,-99.99,VWS V14.01,2013-01-05 17:01:00,
2013-01-05 12:06:00,30.4,12.1,29.03,North,-999,-999.0,-999.0,46,-99.99,,,-99.99,VWS V14.01,2013-01-05 17:06:00,
2013-01-05 12:12:00,30.7,11.9,29.03,North,-999,-999.0,-999.0,45,-99.99,,,-99.99,VWS V14.01,2013-01-05 17:12:00,
2013-01-05 12:17:00,30.6,11.2,29.03,North,-999,-999.0,-999.0,44,-99.99,,,-99.99,VWS V14.01,2013-01-05 17:17:00,
2013-01-05 12:22:00,30.2,10.4,29.03,North,-999,-999.0,-999.0,43,-99.99,,,-99.99,VWS V14.01,2013-01-05 17:22:00,
2013-01-05 12:28:00,29.8,10.1,29.03,North,-999,-999.0,-999.0,43,-99.99,,,-99.99,VWS V14.01,2013-01-05 17:28:00,
2013-01-05 12:33:00,29.8,10.1,29.00,North,-999,-999.0,-999.0,43,-99.99,,,-99.99,VWS V14.01,2013-01-05 17:33:00,
2013-01-05 12:39:00,30.0,10.8,29.00,North,-999,-999.0,-999.0,44,-99.99,,,-99.99,VWS V14.01,2013-01-05 17:39:00,
2013-01-05 12:44:00,30.2,10.9,29.00,North,-999,-999.0,-999.0,44,-99.99,,,-99.99,VWS V14.01,2013-01-05 17:44:00,
2013-01-05 12:49:00,30.4,11.1,29.00,North,-999,-999.0,-999.0,44,-99.99,,,-99.99,VWS V14.01,2013-01-05 17:49:00,
2013-01-05 12:54:00,30.4,11.1,29.00,North,-999,-999.0,-999.0,44,-99.99,,,-99.99,VWS V14.01,2013-01-05 17:54:00,
2013-01-05 12:59:00,30.7,11.4,29.00,North,-999,-999.0,-999.0,44,-99.99,,,-99.99,VWS V14.01,2013-01-05 17:59:00,
2013-01-05 13:04:00,31.1,11.8,28.97,North,-999,-999.0,-999.0,44,-99.99,,,-99.99,VWS V14.01,2013-01-05 18:04:00,
2013-01-05 13:10:00,31.3,11.4,28.97,North,-999,-999.0,-999.0,43,-99.99,,,-99.99,VWS V14.01,2013-01-05 18:10:00,
2013-01-05 13:16:00,31.6,11.2,28.97,North,-999,-999.0,-999.0,42,-99.99,,,-99.99,VWS V14.01,2013-01-05 18:16:00,
2013-01-05 13:21:00,31.8,10.8,28.97,North,-999,-999.0,-999.0,41,-99.99,,,-99.99,VWS V14.01,2013-01-05 18:21:00,
2013-01-05 13:26:00,32.0,11.0,28.97,North,-999,-999.0,-999.0,41,-99.99,,,-99.99,VWS V14.01,2013-01-05 18:26:00,
2013-01-05 13:31:00,32.2,11.1,28.97,North,-999,-999.0,-999.0,41,-99.99,,,-99.99,VWS V14.01,2013-01-05 18:31:00,
2013-01-05 13:36:00,32.4,10.8,28.97,North,-999,-999.0,-999.0,40,-99.99,,,-99.99,VWS V14.01,2013-01-05 18:36:00,
2013-01-05 13:42:00,32.5,10.4,28.97,North,-999,-999.0,-999.0,39,-99.99,,,-99.99,VWS V14.01,2013-01-05 18:42:00,
2013-01-05 13:47:00,32.7,9.9,28.97,North,-999,-999.0,-999.0,38,-99.99,,,-99.99,VWS V14.01,2013-01-05 18:47:00,
2013-01-05 13:52:00,32.7,9.3,28.97,North,-999,-999.0,-999.0,37,-99.99,,,-99.99,VWS V14.01,2013-01-05 18:52:00,
2013-01-05 13:58:00,32.5,8.6,28.97,North,-999,-999.0,-999.0,36,-99.99,,,-99.99,VWS V14.01,2013-01-05 18:58:00,
2013-01-05 14:04:00,32.5,8.6,28.94,North,-999,-999.0,-999.0,36,-99.99,,,-99.99,VWS V14.01,2013-01-05 19:04:00,
2013-01-05 14:10:00,32.7,8.1,28.94,North,-999,-999.0,-999.0,35,-99.99,,,-99.99,VWS V14.01,2013-01-05 19:10:00,
2013-01-05 14:15:00,32.7,7.5,28.94,North,-999,-999.0,-999.0,34,-99.99,,,-99.99,VWS V14.01,2013-01-05 19:15:00,
2013-01-05 14:20:00,33.1,7.8,28.94,North,-999,-999.0,-999.0,34,-99.99,,,-99.99,VWS V14.01,2013-01-05 19:20:00,
2013-01-05 14:26:00,32.7,6.8,28.94,North,-999,-999.0,-999.0,33,-99.99,,,-99.99,VWS V14.01,2013-01-05 19:26:00,
2013-01-05 14:31:00,32.9,7.0,28.94,North,-999,-999.0,-999.0,33,-99.99,,,-99.99,VWS V14.01,2013-01-05 19:31:00,
2013-01-05 14:37:00,32.5,6.6,28.94,North,-999,-999.0,-999.0,33,-99.99,,,-99.99,VWS V14.01,2013-01-05 19:37:00,
2013-01-05 14:42:00,32.5,6.6,28.94,North,-999,-999.0,-999.0,33,-99.99,,,-99.99,VWS V14.01,2013-01-05 19:42:00,
2013-01-05 14:47:00,32.7,7.5,28.94,North,-999,-999.0,-999.0,34,-99.99,,,-99.99,VWS V14.01,2013-01-05 19:47:00,
2013-01-05 14:53:00,33.1,7.8,28.94,North,-999,-999.0,-999.0,34,-99.99,,,-99.99,VWS V14.01,2013-01-05 19:53:00,
2013-01-05 14:58:00,32.9,7.0,28.94,North,-999,-999.0,-999.0,33,-99.99,,,-99.99,VWS V14.01,2013-01-05 19:58:00,
2013-01-05 15:03:00,32.9,7.0,28.94,North,-999,-999.0,-999.0,33,-99.99,,,-99.99,VWS V14.01,2013-01-05 20:03:00,
2013-01-05 15:08:00,32.9,6.3,28.94,North,-999,-999.0,-999.0,32,-99.99,,,-99.99,VWS V14.01,2013-01-05 20:08:00,
2013-01-05 15:14:00,32.7,6.1,28.94,North,-999,-999.0,-999.0,32,-99.99,,,-99.99,VWS V14.01,2013-01-05 20:14:00,
2013-01-05 15:19:00,32.5,5.3,28.94,North,-999,-999.0,-999.0,31,-99.99,,,-99.99,VWS V14.01,2013-01-05 20:19:00,
2013-01-05 15:24:00,32.5,5.3,28.94,North,-999,-999.0,-999.0,31,-99.99,,,-99.99,VWS V14.01,2013-01-05 20:24:00,
2013-01-05 15:29:00,32.5,5.3,28.94,North,-999,-999.0,-999.0,31,-99.99,,,-99.99,VWS V14.01,2013-01-05 20:29:00,
2013-01-05 15:35:00,32.5,5.3,28.94,North,-999,-999.0,-999.0,31,-99.99,,,-99.99,VWS V14.01,2013-01-05 20:35:00,
2013-01-05 15:41:00,32.5,5.3,28.94,North,-999,-999.0,-999.0,31,-99.99,,,-99.99,VWS V14.01,2013-01-05 20:41:00,
2013-01-05 15:47:00,32.4,5.1,28.94,North,-999,-999.0,-999.0,31,-99.99,,,-99.99,VWS V14.01,2013-01-05 20:47:00,
2013-01-05 15:52:00,32.2,4.2,28.94,North,-999,-999.0,-999.0,30,-99.99,,,-99.99,VWS V14.01,2013-01-05 20:52:00,
2013-01-05 15:58:00,32.2,4.2,28.94,North,-999,-999.0,-999.0,30,-99.99,,,-99.99,VWS V14.01,2013-01-05 20:58:00,
2013-01-05 16:03:00,32.0,4.1,28.91,North,-999,-999.0,-999.0,30,-99.99,,,-99.99,VWS V14.01,2013-01-05 21:03:00,
2013-01-05 16:08:00,32.0,4.1,28.91,North,-999,-999.0,-999.0,30,-99.99,,,-99.99,VWS V14.01,2013-01-05 21:08:00,
2013-01-05 16:14:00,31.8,3.9,28.91,North,-999,-999.0,-999.0,30,-99.99,,,-99.99,VWS V14.01,2013-01-05 21:14:00,
2013-01-05 16:20:00,31.3,3.5,28.91,North,-999,-999.0,-999.0,30,-99.99,,,-99.99,VWS V14.01,2013-01-05 21:20:00,
2013-01-05 16:26:00,30.6,3.5,28.91,North,-999,-999.0,-999.0,31,-99.99,,,-99.99,VWS V14.01,2013-01-05 21:26:00,
2013-01-05 16:32:00,30.2,3.2,28.91,North,-999,-999.0,-999.0,31,-99.99,,,-99.99,VWS V14.01,2013-01-05 21:32:00,
2013-01-05 16:37:00,30.2,3.9,28.91,North,-999,-999.0,-999.0,32,-99.99,,,-99.99,VWS V14.01,2013-01-05 21:37:00,
2013-01-05 16:42:00,30.0,3.8,28.91,North,-999,-999.0,-999.0,32,-99.99,,,-99.99,VWS V14.01,2013-01-05 21:42:00,
2013-01-05 16:47:00,29.7,4.1,28.91,North,-999,-999.0,-999.0,33,-99.99,,,-99.99,VWS V14.01,2013-01-05 21:47:00,
2013-01-05 16:52:00,29.7,4.1,28.91,North,-999,-999.0,-999.0,33,-99.99,,,-99.99,VWS V14.01,2013-01-05 21:52:00,
2013-01-05 16:57:00,29.5,4.6,28.91,North,-999,-999.0,-999.0,34,-99.99,,,-99.99,VWS V14.01,2013-01-05 21:57:00,
2013-01-05 17:02:00,29.5,5.2,28.91,North,-999,-999.0,-999.0,35,-99.99,,,-99.99,VWS V14.01,2013-01-05 22:02:00,
2013-01-05 17:07:00,29.3,5.1,28.91,North,-999,-999.0,-999.0,35,-99.99,,,-99.99,VWS V14.01,2013-01-05 22:07:00,
2013-01-05 17:13:00,29.3,5.7,28.91,North,-999,-999.0,-999.0,36,-99.99,,,-99.99,VWS V14.01,2013-01-05 22:13:00,
2013-01-05 17:18:00,29.1,6.1,28.91,North,-999,-999.0,-999.0,37,-99.99,,,-99.99,VWS V14.01,2013-01-05 22:18:00,
2013-01-05 17:23:00,28.9,6.5,28.91,North,-999,-999.0,-999.0,38,-99.99,,,-99.99,VWS V14.01,2013-01-05 22:23:00,
2013-01-05 17:29:00,28.9,7.1,28.91,North,-999,-999.0,-999.0,39,-99.99,,,-99.99,VWS V14.01,2013-01-05 22:29:00,
2013-01-05 17:34:00,28.8,6.9,28.91,North,-999,-999.0,-999.0,39,-99.99,,,-99.99,VWS V14.01,2013-01-05 22:34:00,
2013-01-05 17:40:00,28.6,7.3,28.91,North,-999,-999.0,-999.0,40,-99.99,,,-99.99,VWS V14.01,2013-01-05 22:40:00,
2013-01-05 17:45:00,28.6,7.3,28.91,North,-999,-999.0,-999.0,40,-99.99,,,-99.99,VWS V14.01,2013-01-05 22:45:00,
2013-01-05 17:50:00,28.6,7.9,28.88,North,-999,-999.0,-999.0,41,-99.99,,,-99.99,VWS V14.01,2013-01-05 22:50:00,
2013-01-05 17:56:00,28.6,7.9,28.88,North,-999,-999.0,-999.0,41,-99.99,,,-99.99,VWS V14.01,2013-01-05 22:56:00,
2013-01-05 18:02:00,28.6,7.9,28.91,North,-999,-999.0,-999.0,41,-99.99,,,-99.99,VWS V14.01,2013-01-05 23:02:00,
2013-01-05 18:08:00,28.6,7.9,28.91,North,-999,-999.0,-999.0,41,-99.99,,,-99.99,VWS V14.01,2013-01-05 23:08:00,
2013-01-05 18:13:00,28.4,7.7,28.91,North,-999,-999.0,-999.0,41,-99.99,,,-99.99,VWS V14.01,2013-01-05 23:13:00,
2013-01-05 18:18:00,28.4,8.2,28.91,North,-999,-999.0,-999.0,42,-99.99,,,-99.99,VWS V14.01,2013-01-05 23:18:00,
2013-01-05 18:23:00,28.4,8.2,28.91,North,-999,-999.0,-999.0,42,-99.99,,,-99.99,VWS V14.01,2013-01-05 23:23:00,
2013-01-05 18:28:00,28.4,8.2,28.91,North,-999,-999.0,-999.0,42,-99.99,,,-99.99,VWS V14.01,2013-01-05 23:28:00,
2013-01-05 18:33:00,28.4,8.2,28.88,North,-999,-999.0,-999.0,42,-99.99,,,-99.99,VWS V14.01,2013-01-05 23:33:00,
2013-01-05 18:38:00,28.4,8.2,28.88,North,-999,-999.0,-999.0,42,-99.99,,,-99.99,VWS V14.01,2013-01-05 23:38:00,
2013-01-05 18:43:00,28.2,8.1,28.88,North,-999,-999.0,-999.0,42,-99.99,,,-99.99,VWS V14.01,2013-01-05 23:43:00,
2013-01-05 18:48:00,28.2,8.1,28.91,North,-999,-999.0,-999.0,42,-99.99,,,-99.99,VWS V14.01,2013-01-05 23:48:00,
2013-01-05 18:53:00,28.2,8.1,28.91,North,-999,-999.0,-999.0,42,-99.99,,,-99.99,VWS V14.01,2013-01-05 23:53:00,
2013-01-05 18:59:00,28.4,8.8,28.91,North,-999,-999.0,-999.0,43,-99.99,,,-99.99,VWS V14.01,2013-01-05 23:59:00,
2013-01-05 19:04:00,28.4,8.8,28.88,North,-999,-999.0,-999.0,43,-99.99,,,-99.99,VWS V14.01,2013-01-06 00:04:00,
2013-01-05 19:09:00,28.4,8.8,28.88,North,-999,-999.0,-999.0,43,-99.99,,,-99.99,VWS V14.01,2013-01-06 00:09:00,
2013-01-05 19:14:00,28.6,8.4,28.88,North,-999,-999.0,-999.0,42,-99.99,,,-99.99,VWS V14.01,2013-01-06 00:14:00,
2013-01-05 19:20:00,28.4,8.8,28.91,North,-999,-999.0,-999.0,43,-99.99,,,-99.99,VWS V14.01,2013-01-06 00:20:00,
2013-01-05 19:26:00,28.6,8.9,28.91,North,-999,-999.0,-999.0,43,-99.99,,,-99.99,VWS V14.01,2013-01-06 00:26:00,
2013-01-05 19:31:00,28.6,8.9,28.88,North,-999,-999.0,-999.0,43,-99.99,,,-99.99,VWS V14.01,2013-01-06 00:31:00,
2013-01-05 19:36:00,28.6,8.9,28.88,North,-999,-999.0,-999.0,43,-99.99,,,-99.99,VWS V14.01,2013-01-06 00:36:00,
2013-01-05 19:42:00,28.6,8.9,28.88,North,-999,-999.0,-999.0,43,-99.99,,,-99.99,VWS V14.01,2013-01-06 00:42:00,
2013-01-05 19:47:00,28.6,8.9,28.88,North,-999,-999.0,-999.0,43,-99.99,,,-99.99,VWS V14.01,2013-01-06 00:47:00,
2013-01-05 19:52:00,28.6,8.9,28.88,North,-999,-999.0,-999.0,43,-99.99,,,-99.99,VWS V14.01,2013-01-06 00:52:00,
2013-01-05 19:58:00,28.8,9.6,28.88,North,-999,-999.0,-999.0,44,-99.99,,,-99.99,VWS V14.01,2013-01-06 00:58:00,
2013-01-05 20:03:00,28.8,9.6,28.88,North,-999,-999.0,-999.0,44,-99.99,,,-99.99,VWS V14.01,2013-01-06 01:03:00,
2013-01-05 20:08:00,28.8,9.6,28.88,North,-999,-999.0,-999.0,44,-99.99,,,-99.99,VWS V14.01,2013-01-06 01:08:00,
2013-01-05 20:14:00,28.9,9.8,28.88,North,-999,-999.0,-999.0,44,-99.99,,,-99.99,VWS V14.01,2013-01-06 01:14:00,
2013-01-05 20:20:00,29.1,9.9,28.88,North,-999,-999.0,-999.0,44,-99.99,,,-99.99,VWS V14.01,2013-01-06 01:20:00,
2013-01-05 20:26:00,29.3,10.1,28.88,North,-999,-999.0,-999.0,44,-99.99,,,-99.99,VWS V14.01,2013-01-06 01:26:00,
2013-01-05 20:31:00,29.5,9.8,28.88,North,-999,-999.0,-999.0,43,-99.99,,,-99.99,VWS V14.01,2013-01-06 01:31:00,
2013-01-05 20:36:00,29.5,9.8,28.88,North,-999,-999.0,-999.0,43,-99.99,,,-99.99,VWS V14.01,2013-01-06 01:36:00,
2013-01-05 20:41:00,29.7,10.4,28.88,North,-999,-999.0,-999.0,44,-99.99,,,-99.99,VWS V14.01,2013-01-06 01:41:00,
2013-01-05 20:47:00,29.5,10.8,28.88,North,-999,-999.0,-999.0,45,-99.99,,,-99.99,VWS V14.01,2013-01-06 01:47:00,
2013-01-05 20:52:00,29.5,11.3,28.88,North,-999,-999.0,-999.0,46,-99.99,,,-99.99,VWS V14.01,2013-01-06 01:52:00,
2013-01-05 20:57:00,29.7,12.4,28.88,North,-999,-999.0,-999.0,48,-99.99,,,-99.99,VWS V14.01,2013-01-06 01:57:00,
2013-01-05 21:02:00,29.7,13.3,28.88,North,-999,-999.0,-999.0,50,-99.99,,,-99.99,VWS V14.01,2013-01-06 02:02:00,
2013-01-05 21:07:00,29.5,13.6,28.88,North,-999,-999.0,-999.0,51,-99.99,,,-99.99,VWS V14.01,2013-01-06 02:07:00,
2013-01-05 21:12:00,29.5,14.5,28.88,North,-999,-999.0,-999.0,53,-99.99,,,-99.99,VWS V14.01,2013-01-06 02:12:00,
2013-01-05 21:18:00,29.5,15.3,28.88,North,-999,-999.0,-999.0,55,-99.99,,,-99.99,VWS V14.01,2013-01-06 02:18:00,
2013-01-05 21:23:00,29.5,16.1,28.88,North,-999,-999.0,-999.0,57,-99.99,,,-99.99,VWS V14.01,2013-01-06 02:23:00,
2013-01-05 21:28:00,29.5,16.5,28.88,North,-999,-999.0,-999.0,58,-99.99,,,-99.99,VWS V14.01,2013-01-06 02:28:00,
2013-01-05 21:33:00,29.5,16.9,28.85,North,-999,-999.0,-999.0,59,-99.99,,,-99.99,VWS V14.01,2013-01-06 02:33:00,
2013-01-05 21:39:00,29.5,17.3,28.85,North,-999,-999.0,-999.0,60,-99.99,,,-99.99,VWS V14.01,2013-01-06 02:39:00,
2013-01-05 21:44:00,29.5,18.1,28.85,North,-999,-999.0,-999.0,62,-99.99,,,-99.99,VWS V14.01,2013-01-06 02:44:00,
2013-01-05 21:49:00,29.5,18.5,28.85,North,-999,-999.0,-999.0,63,-99.99,,,-99.99,VWS V14.01,2013-01-06 02:49:00,
2013-01-05 21:54:00,29.5,18.8,28.85,North,-999,-999.0,-999.0,64,-99.99,,,-99.99,VWS V14.01,2013-01-06 02:54:00,
2013-01-05 22:00:00,29.7,19.4,28.85,North,-999,-999.0,-999.0,65,-99.99,,,-99.99,VWS V14.01,2013-01-06 03:00:00,
2013-01-05 22:05:00,29.7,19.7,28.85,North,-999,-999.0,-999.0,66,-99.99,,,-99.99,VWS V14.01,2013-01-06 03:05:00,
2013-01-05 22:11:00,29.7,20.4,28.85,North,-999,-999.0,-999.0,68,-99.99,,,-99.99,VWS V14.01,2013-01-06 03:11:00,
2013-01-05 22:17:00,29.8,21.3,28.85,North,-999,-999.0,-999.0,70,-99.99,,,-99.99,VWS V14.01,2013-01-06 03:17:00,
2013-01-05 22:23:00,30.0,21.8,28.85,North,-999,-999.0,-999.0,71,-99.99,,,-99.99,VWS V14.01,2013-01-06 03:23:00,
2013-01-05 22:28:00,30.0,22.1,28.85,North,-999,-999.0,-999.0,72,-99.99,,,-99.99,VWS V14.01,2013-01-06 03:28:00,
2013-01-05 22:33:00,30.2,22.3,28.85,North,-999,-999.0,-999.0,72,-99.99,,,-99.99,VWS V14.01,2013-01-06 03:33:00,
2013-01-05 22:39:00,30.2,22.6,28.85,North,-999,-999.0,-999.0,73,-99.99,,,-99.99,VWS V14.01,2013-01-06 03:39:00,
2013-01-05 22:44:00,30.2,22.6,28.85,North,-999,-999.0,-999.0,73,-99.99,,,-99.99,VWS V14.01,2013-01-06 03:44:00,
2013-01-05 22:50:00,30.4,23.1,28.85,North,-999,-999.0,-999.0,74,-99.99,,,-99.99,VWS V14.01,2013-01-06 03:50:00,
2013-01-05 22:55:00,30.4,23.1,28.85,North,-999,-999.0,-999.0,74,-99.99,,,-99.99,VWS V14.01,2013-01-06 03:55:00,
2013-01-05 23:00:00,30.6,23.6,28.85,North,-999,-999.0,-999.0,75,-99.99,,,-99.99,VWS V14.01,2013-01-06 04:00:00,
2013-01-05 23:06:00,30.7,23.8,28.85,North,-999,-999.0,-999.0,75,-99.99,,,-99.99,VWS V14.01,2013-01-06 04:06:00,
2013-01-05 23:11:00,30.7,23.8,28.85,North,-999,-999.0,-999.0,75,-99.99,,,-99.99,VWS V14.01,2013-01-06 04:11:00,
2013-01-05 23:16:00,30.9,24.3,28.85,North,-999,-999.0,-999.0,76,-99.99,,,-99.99,VWS V14.01,2013-01-06 04:16:00,
2013-01-05 23:21:00,30.9,24.3,28.85,North,-999,-999.0,-999.0,76,-99.99,,,-99.99,VWS V14.01,2013-01-06 04:21:00,
2013-01-05 23:27:00,31.1,24.4,28.85,North,-999,-999.0,-999.0,76,-99.99,,,-99.99,VWS V14.01,2013-01-06 04:27:00,
2013-01-05 23:32:00,31.1,24.4,28.85,North,-999,-999.0,-999.0,76,-99.99,,,-99.99,VWS V14.01,2013-01-06 04:32:00,
2013-01-05 23:37:00,31.1,24.4,28.85,North,-999,-999.0,-999.0,76,-99.99,,,-99.99,VWS V14.01,2013-01-06 04:37:00,
2013-01-05 23:42:00,31.3,24.9,28.85,North,-999,-999.0,-999.0,77,-99.99,,,-99.99,VWS V14.01,2013-01-06 04:42:00,
2013-01-05 23:48:00,31.3,24.9,28.82,North,-999,-999.0,-999.0,77,-99.99,,,-99.99,VWS V14.01,2013-01-06 04:48:00,
2013-01-05 23:53:00,31.5,25.1,28.82,North,-999,-999.0,-999.0,77,-99.99,,,-99.99,VWS V14.01,2013-01-06 04:53:00,
2013-01-05 23:58:00,31.5,25.1,28.82,North,-999,-999.0,-999.0,77,-99.99,,,-99.99,VWS V14.01,2013-01-06 04:58:00,